createdAt,value
2022-08-21T00:00:17.521Z,36.08
2022-08-21T00:02:55.932Z,30.30
2022-08-21T00:05:24.014Z,26.83
2022-08-21T00:07:51.474Z,26.45
2022-08-21T00:10:19.859Z,27.95
2022-08-21T00:12:47.184Z,19.08
2022-08-21T00:15:19.867Z,18.85
2022-08-21T00:17:47.482Z,16.33
2022-08-21T00:20:18.052Z,20.27
2022-08-21T00:22:45.968Z,15.30
2022-08-21T00:25:15.767Z,14.55
2022-08-21T00:27:44.415Z,14.18
2022-08-21T00:30:17.403Z,14.02
2022-08-21T00:32:50.804Z,12.85
2022-08-21T00:35:20.448Z,14.43
2022-08-21T00:37:47.527Z,13.15
2022-08-21T00:40:18.013Z,12.23
2022-08-21T00:42:48.704Z,13.15
2022-08-21T00:45:22.678Z,11.60
2022-08-21T00:47:51.250Z,11.38
2022-08-21T00:50:21.767Z,11.27
2022-08-21T00:52:53.254Z,11.40
2022-08-21T00:55:23.555Z,10.88
2022-08-21T00:57:54.887Z,9.65
2022-08-21T01:00:30.684Z,10.48
2022-08-21T01:02:59.662Z,8.07
2022-08-21T01:05:28.320Z,9.75
2022-08-21T01:07:58.277Z,9.20
2022-08-21T01:10:25.884Z,11.10
2022-08-21T01:12:56.162Z,11.35
2022-08-21T01:15:25.669Z,12.27
2022-08-21T01:17:53.343Z,11.02
2022-08-21T01:20:20.469Z,10.32
2022-08-21T01:22:47.592Z,10.77
2022-08-21T01:25:22.751Z,10.35
2022-08-21T01:27:50.165Z,9.98
2022-08-21T01:30:24.922Z,9.27
2022-08-21T01:32:53.501Z,10.05
2022-08-21T01:35:21.277Z,9.40
2022-08-21T01:37:49.559Z,10.02
2022-08-21T01:40:18.443Z,9.48
2022-08-21T01:42:47.584Z,8.65
2022-08-21T01:45:15.785Z,9.18
2022-08-21T01:47:43.732Z,10.00
2022-08-21T01:50:14.242Z,9.70
2022-08-21T01:52:41.838Z,10.23
2022-08-21T01:55:10.335Z,10.05
2022-08-21T01:57:37.242Z,10.63
2022-08-21T02:00:09.397Z,9.15
2022-08-21T02:02:36.335Z,8.70
2022-08-21T02:05:04.973Z,10.25
2022-08-21T02:07:39.782Z,8.70
2022-08-21T02:10:08.858Z,9.23
2022-08-21T02:12:36.252Z,10.02
2022-08-21T02:15:05.517Z,10.00
2022-08-21T02:17:45.580Z,9.60
2022-08-21T02:20:18.454Z,11.23
2022-08-21T02:22:45.413Z,11.32
2022-08-21T02:25:13.141Z,12.50
2022-08-21T02:27:41.976Z,10.63
2022-08-21T02:30:13.747Z,11.32
2022-08-21T02:32:41.464Z,11.15
2022-08-21T02:35:09.809Z,9.82
2022-08-21T02:37:49.246Z,9.25
2022-08-21T02:40:18.486Z,9.02
2022-08-21T02:42:45.576Z,9.02
2022-08-21T02:45:13.755Z,10.63
2022-08-21T02:47:41.431Z,10.00
2022-08-21T02:50:08.951Z,11.18
2022-08-21T02:52:36.479Z,9.60
2022-08-21T02:55:03.612Z,10.13
2022-08-21T02:57:32.734Z,10.55
2022-08-21T02:59:59.784Z,9.13
2022-08-21T03:02:26.788Z,8.65
2022-08-21T03:04:53.739Z,8.30
2022-08-21T03:07:20.637Z,8.10
2022-08-21T03:09:55.473Z,8.27
2022-08-21T03:12:23.132Z,7.47
2022-08-21T03:14:50.062Z,7.95
2022-08-21T03:17:17.277Z,8.00
2022-08-21T03:19:44.361Z,8.02
2022-08-21T03:22:11.281Z,7.80
2022-08-21T03:24:38.795Z,6.88
2022-08-21T03:27:10.104Z,6.85
2022-08-21T03:29:36.963Z,7.35
2022-08-21T03:32:04.317Z,7.18
2022-08-21T03:34:31.276Z,7.35
2022-08-21T03:36:58.140Z,7.63
2022-08-21T03:39:25.114Z,7.20
2022-08-21T03:41:53.114Z,6.82
2022-08-21T03:44:20.040Z,6.47
2022-08-21T03:46:47.242Z,7.28
2022-08-21T03:49:14.249Z,7.13
2022-08-21T03:51:41.152Z,6.13
2022-08-21T03:54:08.014Z,5.82
2022-08-21T03:56:35.079Z,5.72
2022-08-21T03:59:03.703Z,6.45
2022-08-21T04:01:31.207Z,6.03
2022-08-21T04:03:58.350Z,5.25
2022-08-21T04:06:27.467Z,6.78
2022-08-21T04:08:55.216Z,5.10
2022-08-21T04:11:22.644Z,4.30
2022-08-21T04:13:50.618Z,5.28
2022-08-21T04:16:17.701Z,5.38
2022-08-21T04:18:44.688Z,4.30
2022-08-21T04:21:12.564Z,4.65
2022-08-21T04:23:40.435Z,5.07
2022-08-21T04:26:07.759Z,4.45
2022-08-21T04:28:34.652Z,4.72
2022-08-21T04:31:01.968Z,5.43
2022-08-21T04:33:28.935Z,5.03
2022-08-21T04:35:56.015Z,3.97
2022-08-21T04:38:23.350Z,4.43
2022-08-21T04:40:51.150Z,5.07
2022-08-21T04:43:19.332Z,5.05
2022-08-21T04:45:48.989Z,5.13
2022-08-21T04:48:18.804Z,3.70
2022-08-21T04:50:54.528Z,3.30
2022-08-21T04:53:26.697Z,3.33
2022-08-21T04:55:56.578Z,3.13
2022-08-21T04:58:27.132Z,4.13
2022-08-21T05:00:58.865Z,3.00
2022-08-21T05:03:26.023Z,3.20
2022-08-21T05:05:53.183Z,3.28
2022-08-21T05:08:24.641Z,3.53
2022-08-21T05:10:51.703Z,3.22
2022-08-21T05:13:19.087Z,3.03
2022-08-21T05:15:46.065Z,3.10
2022-08-21T05:18:13.611Z,3.42
2022-08-21T05:20:40.568Z,3.28
2022-08-21T05:23:09.766Z,2.80
2022-08-21T05:25:36.963Z,3.15
2022-08-21T05:28:04.168Z,3.13
2022-08-21T05:30:31.209Z,3.40
2022-08-21T05:33:00.517Z,3.03
2022-08-21T05:35:29.410Z,2.47
2022-08-21T05:37:57.175Z,2.92
2022-08-21T05:40:25.018Z,3.03
2022-08-21T05:42:56.570Z,2.63
2022-08-21T05:45:41.342Z,3.55
2022-08-21T05:48:25.378Z,2.53
2022-08-21T05:50:53.420Z,4.07
2022-08-21T05:53:21.816Z,2.67
2022-08-21T05:55:49.387Z,3.10
2022-08-21T05:58:18.591Z,2.72
2022-08-21T06:00:48.380Z,3.45
2022-08-21T06:03:19.636Z,3.53
2022-08-21T06:05:46.915Z,3.88
2022-08-21T06:08:15.058Z,3.80
2022-08-21T06:10:42.149Z,3.58
2022-08-21T06:13:09.275Z,3.35
2022-08-21T06:15:36.234Z,3.17
2022-08-21T06:18:03.522Z,2.83
2022-08-21T06:20:30.652Z,2.88
2022-08-21T06:22:57.701Z,3.08
2022-08-21T06:25:25.587Z,2.90
2022-08-21T06:27:52.755Z,2.60
2022-08-21T06:30:20.176Z,2.28
2022-08-21T06:32:47.029Z,2.42
2022-08-21T06:35:13.933Z,2.38
2022-08-21T06:37:40.825Z,2.78
2022-08-21T06:40:12.497Z,2.63
2022-08-21T06:42:42.840Z,2.30
2022-08-21T06:45:11.101Z,2.45
2022-08-21T06:47:38.432Z,2.20
2022-08-21T06:50:08.555Z,1.95
2022-08-21T06:52:37.303Z,2.47
2022-08-21T06:55:07.598Z,3.00
2022-08-21T06:57:34.964Z,2.08
2022-08-21T07:00:02.438Z,2.17
2022-08-21T07:02:29.425Z,2.22
2022-08-21T07:04:56.524Z,2.10
2022-08-21T07:07:23.655Z,2.67
2022-08-21T07:09:50.595Z,2.25
2022-08-21T07:12:17.824Z,2.17
2022-08-21T07:14:44.876Z,2.13
2022-08-21T07:17:11.842Z,2.20
2022-08-21T07:19:38.743Z,2.22
2022-08-21T07:22:05.856Z,2.50
2022-08-21T07:24:32.826Z,2.05
2022-08-21T07:26:59.722Z,2.03
2022-08-21T07:29:27.210Z,2.38
2022-08-21T07:31:54.106Z,2.17
2022-08-21T07:34:21.067Z,2.28
2022-08-21T07:36:48.194Z,2.72
2022-08-21T07:39:16.320Z,1.92
2022-08-21T07:41:43.346Z,2.45
2022-08-21T07:44:10.363Z,2.10
2022-08-21T07:46:39.657Z,2.28
2022-08-21T07:49:06.788Z,1.85
2022-08-21T07:51:34.762Z,2.03
2022-08-21T07:54:02.507Z,2.08
2022-08-21T07:56:31.983Z,2.72
2022-08-21T07:58:58.993Z,1.85
2022-08-21T08:01:26.379Z,2.03
2022-08-21T08:03:53.431Z,2.40
2022-08-21T08:06:20.598Z,2.10
2022-08-21T08:08:48.264Z,2.60
2022-08-21T08:11:16.379Z,2.65
2022-08-21T08:13:48.984Z,1.98
2022-08-21T08:16:16.367Z,2.15
2022-08-21T08:18:43.468Z,2.28
2022-08-21T08:21:11.516Z,2.30
2022-08-21T08:23:38.514Z,2.33
2022-08-21T08:26:06.622Z,2.30
2022-08-21T08:28:34.354Z,2.05
2022-08-21T08:31:02.493Z,2.30
2022-08-21T08:33:29.616Z,2.35
2022-08-21T08:35:56.564Z,2.17
2022-08-21T08:38:25.787Z,2.10
2022-08-21T08:41:04.935Z,2.42
2022-08-21T08:43:34.259Z,2.17
2022-08-21T08:46:07.000Z,2.03
2022-08-21T08:49:03.809Z,2.25
2022-08-21T08:51:55.417Z,2.10
2022-08-21T08:54:40.020Z,2.03
2022-08-21T08:57:11.823Z,2.20
2022-08-21T08:59:51.852Z,1.80
2022-08-21T09:02:22.010Z,2.63
2022-08-21T09:04:50.908Z,2.00
2022-08-21T09:07:45.683Z,2.42
2022-08-21T09:10:26.187Z,2.05
2022-08-21T09:13:07.712Z,2.28
2022-08-21T09:15:43.490Z,2.20
2022-08-21T09:18:10.341Z,1.98
2022-08-21T09:21:37.249Z,2.28
2022-08-21T09:24:29.996Z,1.90
2022-08-21T09:27:09.404Z,2.40
2022-08-21T09:29:40.459Z,2.03
2022-08-21T09:32:18.638Z,2.03
2022-08-21T09:34:58.620Z,1.90
2022-08-21T09:37:27.308Z,2.33
2022-08-21T09:39:54.243Z,2.10
2022-08-21T09:42:33.253Z,2.00
2022-08-21T09:45:19.439Z,2.10
2022-08-21T09:47:46.802Z,2.20
2022-08-21T09:50:22.978Z,2.17
2022-08-21T09:52:58.036Z,2.17
2022-08-21T09:55:58.387Z,2.03
2022-08-21T09:58:35.484Z,1.88
2022-08-21T10:01:04.565Z,1.80
2022-08-21T10:03:31.636Z,2.00
2022-08-21T10:06:03.023Z,2.30
2022-08-21T10:08:31.107Z,2.00
2022-08-21T10:11:09.244Z,1.98
2022-08-21T10:13:54.478Z,1.83
2022-08-21T10:17:12.915Z,2.17
2022-08-21T10:19:49.478Z,1.90
2022-08-21T10:22:33.593Z,2.05
2022-08-21T10:25:22.089Z,2.33
2022-08-21T10:28:17.583Z,2.13
2022-08-21T10:31:17.907Z,2.33
2022-08-21T10:34:03.522Z,2.55
2022-08-21T10:36:47.631Z,2.60
2022-08-21T10:39:55.179Z,3.72
2022-08-21T10:42:28.700Z,3.20
2022-08-21T10:45:23.766Z,2.38
2022-08-21T10:47:57.957Z,1.90
2022-08-21T10:50:33.045Z,2.35
2022-08-21T10:53:15.528Z,3.15
2022-08-21T10:55:51.420Z,2.60
2022-08-21T10:58:29.404Z,2.17
2022-08-21T11:01:08.933Z,2.00
2022-08-21T11:03:51.709Z,2.15
2022-08-21T11:06:25.526Z,2.38
2022-08-21T11:09:00.760Z,2.30
2022-08-21T11:11:35.781Z,1.77
2022-08-21T11:14:22.380Z,2.22
2022-08-21T11:17:12.000Z,2.30
2022-08-21T11:19:51.437Z,1.88
2022-08-21T11:22:37.372Z,2.30
2022-08-21T11:25:14.574Z,2.00
2022-08-21T11:27:59.854Z,1.77
2022-08-21T11:30:46.259Z,2.03
2022-08-21T11:33:43.092Z,2.53
2022-08-21T11:36:22.891Z,2.10
2022-08-21T11:39:09.457Z,1.92
2022-08-21T11:41:48.426Z,3.00
2022-08-21T11:44:47.361Z,2.42
2022-08-21T11:47:45.384Z,3.13
2022-08-21T11:50:32.493Z,3.63
2022-08-21T11:53:11.308Z,3.13
2022-08-21T11:55:47.192Z,2.78
2022-08-21T11:58:14.089Z,3.30
2022-08-21T12:00:47.211Z,3.05
2022-08-21T12:03:28.090Z,2.90
2022-08-21T12:05:59.008Z,2.40
2022-08-21T12:08:33.751Z,2.78
2022-08-21T12:11:06.344Z,1.92
2022-08-21T12:13:42.147Z,1.75
2022-08-21T12:16:39.976Z,2.05
2022-08-21T12:19:13.058Z,1.85
2022-08-21T12:21:52.073Z,2.03
2022-08-21T12:24:59.203Z,1.92
2022-08-21T12:27:32.512Z,2.22
2022-08-21T12:30:19.289Z,1.73
2022-08-21T12:32:59.846Z,2.03
2022-08-21T12:35:44.557Z,1.50
2022-08-21T12:38:27.642Z,2.00
2022-08-21T12:41:14.079Z,1.67
2022-08-21T12:43:50.101Z,1.80
2022-08-21T12:46:20.388Z,1.80
2022-08-21T12:48:57.766Z,1.58
2022-08-21T12:51:34.568Z,1.77
2022-08-21T12:54:01.711Z,1.90
2022-08-21T12:56:34.788Z,2.00
2022-08-21T12:59:06.456Z,2.72
2022-08-21T13:01:41.522Z,1.80
2022-08-21T13:04:14.157Z,3.90
2022-08-21T13:06:44.344Z,8.63
2022-08-21T13:09:20.917Z,6.00
2022-08-21T13:11:49.822Z,2.38
2022-08-21T13:14:35.179Z,2.92
2022-08-21T13:17:14.073Z,3.47
2022-08-21T13:20:08.106Z,3.38
2022-08-21T13:22:43.390Z,3.47
2022-08-21T13:25:16.486Z,4.53
2022-08-21T13:27:45.478Z,4.00
2022-08-21T13:30:22.131Z,1.88
2022-08-21T13:32:56.614Z,1.65
2022-08-21T13:35:46.838Z,2.10
2022-08-21T13:38:14.892Z,3.22
2022-08-21T13:40:51.314Z,3.90
2022-08-21T13:43:28.123Z,2.75
2022-08-21T13:45:56.447Z,2.17
2022-08-21T13:48:34.020Z,4.47
2022-08-21T13:51:01.982Z,2.17
2022-08-21T13:53:33.512Z,1.85
2022-08-21T13:56:02.407Z,2.10
2022-08-21T13:58:44.375Z,1.90
2022-08-21T14:01:29.169Z,2.53
2022-08-21T14:04:22.270Z,1.80
2022-08-21T14:06:50.387Z,4.90
2022-08-21T14:09:23.324Z,6.47
2022-08-21T14:11:50.413Z,4.53
2022-08-21T14:14:25.018Z,2.75
2022-08-21T14:17:23.983Z,2.95
2022-08-21T14:19:51.414Z,1.80
2022-08-21T14:22:37.056Z,1.90
2022-08-21T14:25:17.032Z,2.65
2022-08-21T14:28:09.818Z,2.38
2022-08-21T14:30:41.270Z,1.80
2022-08-21T14:33:13.414Z,3.08
2022-08-21T14:35:41.079Z,1.52
2022-08-21T14:38:16.768Z,1.63
2022-08-21T14:40:46.079Z,1.52
2022-08-21T14:43:13.041Z,1.90
2022-08-21T14:45:41.715Z,1.52
2022-08-21T14:48:09.407Z,1.83
2022-08-21T14:50:36.762Z,1.80
2022-08-21T14:53:11.135Z,1.63
2022-08-21T14:55:58.371Z,1.80
2022-08-21T14:58:26.324Z,1.38
2022-08-21T15:00:55.103Z,1.20
2022-08-21T15:03:25.311Z,1.33
2022-08-21T15:05:52.849Z,1.40
2022-08-21T15:08:19.977Z,1.20
2022-08-21T15:11:10.156Z,1.27
2022-08-21T15:13:34.799Z,1.30
2022-08-21T15:16:03.742Z,1.50
2022-08-21T15:18:32.466Z,1.20
2022-08-21T15:20:59.698Z,1.05
2022-08-21T15:23:26.658Z,0.90
2022-08-21T15:25:54.421Z,1.20
2022-08-21T15:28:22.617Z,1.17
2022-08-21T15:30:50.908Z,1.05
2022-08-21T15:33:18.945Z,1.40
2022-08-21T15:35:47.203Z,1.27
2022-08-21T15:38:15.403Z,1.40
2022-08-21T15:40:51.761Z,1.50
2022-08-21T15:43:30.391Z,1.73
2022-08-21T15:46:00.075Z,1.33
2022-08-21T15:48:27.647Z,1.20
2022-08-21T15:50:54.596Z,1.50
2022-08-21T15:53:21.491Z,1.48
2022-08-21T15:55:48.436Z,1.30
2022-08-21T15:58:17.527Z,1.42
2022-08-21T16:00:46.385Z,1.30
2022-08-21T16:03:17.769Z,1.40
2022-08-21T16:05:45.831Z,1.60
2022-08-21T16:08:13.150Z,1.33
2022-08-21T16:10:40.731Z,1.33
2022-08-21T16:13:26.698Z,1.35
2022-08-21T16:15:54.221Z,1.20
2022-08-21T16:18:23.211Z,1.63
2022-08-21T16:20:51.006Z,1.33
2022-08-21T16:23:18.043Z,1.38
2022-08-21T16:25:46.388Z,1.30
2022-08-21T16:28:16.331Z,1.30
2022-08-21T16:30:47.113Z,1.45
2022-08-21T16:33:36.019Z,1.17
2022-08-21T16:36:05.133Z,1.35
2022-08-21T16:38:33.292Z,1.70
2022-08-21T16:41:05.037Z,1.27
2022-08-21T16:43:34.537Z,1.50
2022-08-21T16:46:02.620Z,1.42
2022-08-21T16:48:30.021Z,1.48
2022-08-21T16:50:59.174Z,1.30
2022-08-21T16:53:26.358Z,0.95
2022-08-21T16:55:54.181Z,1.50
2022-08-21T16:58:28.142Z,1.38
2022-08-21T17:00:55.548Z,1.40
2022-08-21T17:03:37.709Z,1.40
2022-08-21T17:06:08.022Z,1.33
2022-08-21T17:08:35.619Z,1.20
2022-08-21T17:11:03.189Z,1.40
2022-08-21T17:13:30.873Z,1.40
2022-08-21T17:15:57.906Z,1.65
2022-08-21T17:18:26.635Z,1.95
2022-08-21T17:20:54.045Z,1.50
2022-08-21T17:23:22.014Z,3.40
2022-08-21T17:25:52.908Z,3.00
2022-08-21T17:28:24.018Z,3.97
2022-08-21T17:30:54.291Z,3.45
2022-08-21T17:33:23.118Z,3.25
2022-08-21T17:35:50.242Z,3.13
2022-08-21T17:38:17.355Z,2.85
2022-08-21T17:40:44.419Z,2.25
2022-08-21T17:43:15.339Z,2.20
2022-08-21T17:45:43.933Z,2.75
2022-08-21T17:48:11.172Z,2.53
2022-08-21T17:50:39.858Z,1.85
2022-08-21T17:53:07.233Z,1.80
2022-08-21T17:55:35.007Z,1.65
2022-08-21T17:58:03.716Z,2.63
2022-08-21T18:00:32.596Z,2.85
2022-08-21T18:03:15.058Z,3.00
2022-08-21T18:05:43.494Z,2.40
2022-08-21T18:08:10.913Z,2.00
2022-08-21T18:10:41.159Z,2.38
2022-08-21T18:13:11.174Z,2.35
2022-08-21T18:15:38.497Z,1.98
2022-08-21T18:18:06.779Z,1.95
2022-08-21T18:20:33.962Z,2.05
2022-08-21T18:23:01.053Z,1.90
2022-08-21T18:25:29.004Z,1.95
2022-08-21T18:27:56.443Z,2.90
2022-08-21T18:30:24.523Z,2.80
2022-08-21T18:32:54.489Z,2.70
2022-08-21T18:35:21.923Z,2.42
2022-08-21T18:37:48.836Z,2.53
2022-08-21T18:40:16.037Z,2.85
2022-08-21T18:42:55.059Z,2.90
2022-08-21T18:45:23.595Z,2.90
2022-08-21T18:47:52.888Z,3.13
2022-08-21T18:50:24.932Z,3.10
2022-08-21T18:52:54.402Z,2.60
2022-08-21T18:55:22.840Z,2.80
2022-08-21T18:57:51.798Z,2.80
2022-08-21T19:00:24.282Z,2.80
2022-08-21T19:02:51.963Z,2.70
2022-08-21T19:05:21.578Z,2.75
2022-08-21T19:07:51.471Z,2.90
2022-08-21T19:10:28.154Z,2.83
2022-08-21T19:13:00.761Z,2.92
2022-08-21T19:15:28.550Z,3.20
2022-08-21T19:17:57.450Z,3.08
2022-08-21T19:20:31.223Z,3.10
2022-08-21T19:22:58.331Z,3.53
2022-08-21T19:25:33.638Z,3.20
2022-08-21T19:28:03.844Z,2.97
2022-08-21T19:30:45.990Z,3.35
2022-08-21T19:33:23.429Z,4.47
2022-08-21T19:38:38.941Z,5.85
2022-08-21T19:41:09.214Z,5.45
2022-08-21T19:43:44.434Z,6.50
2022-08-21T19:46:16.846Z,6.18
2022-08-21T19:48:46.646Z,4.38
2022-08-21T19:51:13.889Z,2.92
2022-08-21T19:53:40.933Z,2.45
2022-08-21T19:56:12.343Z,3.38
2022-08-21T19:58:42.935Z,2.90
2022-08-21T20:01:16.468Z,3.22
2022-08-21T20:03:45.302Z,3.10
2022-08-21T20:06:24.046Z,2.90
2022-08-21T20:08:51.992Z,3.08
2022-08-21T20:11:35.581Z,2.63
2022-08-21T20:14:02.969Z,2.38
2022-08-21T20:16:30.964Z,2.42
2022-08-21T20:18:58.535Z,2.58
2022-08-21T20:21:25.522Z,2.30
2022-08-21T20:23:53.163Z,2.22
2022-08-21T20:26:20.431Z,2.58
2022-08-21T20:28:50.542Z,2.40
2022-08-21T20:31:19.618Z,2.88
2022-08-21T20:33:49.526Z,2.42
2022-08-21T20:36:17.806Z,2.55
2022-08-21T20:38:48.151Z,1.98
2022-08-21T20:41:21.462Z,2.05
2022-08-21T20:43:59.378Z,2.15
2022-08-21T20:46:28.297Z,2.55
2022-08-21T20:48:56.220Z,2.28
2022-08-21T20:51:40.930Z,2.08
2022-08-21T20:54:45.811Z,2.65
2022-08-21T20:57:37.807Z,2.53
2022-08-21T21:00:14.642Z,2.55
2022-08-21T21:02:48.053Z,2.58
2022-08-21T21:05:28.008Z,3.22
2022-08-21T21:08:01.206Z,2.75
2022-08-21T21:10:41.564Z,3.08
2022-08-21T21:13:23.668Z,3.92
2022-08-21T21:15:55.888Z,3.25
2022-08-21T21:18:33.608Z,3.75
2022-08-21T21:21:08.562Z,3.80
2022-08-21T21:23:50.840Z,3.30
2022-08-21T21:26:29.367Z,3.10
2022-08-21T21:29:20.752Z,3.30
2022-08-21T21:31:49.268Z,2.63
2022-08-21T21:34:17.274Z,2.90
2022-08-21T21:36:56.490Z,3.08
2022-08-21T21:39:36.172Z,2.80
2022-08-21T21:42:12.997Z,2.75
2022-08-21T21:44:57.935Z,2.92
2022-08-21T21:47:51.035Z,2.45
2022-08-21T21:50:29.463Z,2.15
2022-08-21T21:53:12.185Z,2.67
2022-08-21T21:56:00.926Z,2.42
2022-08-21T21:58:38.528Z,2.95
2022-08-21T22:01:46.885Z,2.92
2022-08-21T22:04:51.531Z,3.20
2022-08-21T22:07:25.478Z,3.20
2022-08-21T22:10:07.058Z,3.70
2022-08-21T22:13:09.724Z,3.35
2022-08-21T22:15:37.676Z,3.20
2022-08-21T22:18:10.981Z,3.40
2022-08-21T22:20:51.836Z,3.08
2022-08-21T22:23:22.819Z,3.25
2022-08-21T22:25:53.726Z,3.47
2022-08-21T22:28:29.419Z,3.05
2022-08-21T22:31:10.253Z,3.75
2022-08-21T22:33:37.445Z,3.05
2022-08-21T22:36:21.702Z,3.30
2022-08-21T22:38:48.860Z,3.30
2022-08-21T22:41:28.029Z,3.55
2022-08-21T22:44:02.661Z,3.17
2022-08-21T22:46:47.676Z,2.88
2022-08-21T22:49:36.420Z,3.42
2022-08-21T22:52:26.713Z,3.05
2022-08-21T22:55:00.234Z,3.40
2022-08-21T22:57:31.270Z,3.70
2022-08-21T23:00:33.539Z,3.58
2022-08-21T23:03:02.999Z,3.50
2022-08-21T23:05:30.790Z,3.75
2022-08-21T23:08:24.191Z,3.80
2022-08-21T23:10:58.710Z,4.10
2022-08-21T23:13:28.690Z,3.53
2022-08-21T23:16:07.523Z,3.60
2022-08-21T23:18:58.007Z,3.60
2022-08-21T23:21:40.770Z,3.50
2022-08-21T23:24:36.963Z,3.72
2022-08-21T23:27:22.392Z,3.45
2022-08-21T23:30:18.606Z,3.75
2022-08-21T23:33:04.255Z,3.92
2022-08-21T23:36:36.291Z,3.88
2022-08-21T23:39:05.075Z,3.80
2022-08-21T23:41:53.797Z,3.45
2022-08-21T23:44:45.511Z,4.32
2022-08-21T23:47:30.088Z,3.85
2022-08-21T23:50:16.769Z,4.28
2022-08-21T23:53:10.640Z,3.80
2022-08-21T23:55:44.578Z,3.53
2022-08-21T23:58:45.146Z,3.17
